sensor_id;sensor_type;location;lat;lon;timestamp;P1;durP1;ratioP1;P2;durP2;ratioP2
56373;SDS011;58212;47.034;7.376;2023-04-29T00:01:09;5.05;;;1.90;;
56373;SDS011;58212;47.034;7.376;2023-04-29T00:03:36;2.28;;;1.75;;
56373;SDS011;58212;47.034;7.376;2023-04-29T00:06:05;2.85;;;2.13;;
56373;SDS011;58212;47.034;7.376;2023-04-29T00:08:32;5.28;;;1.88;;
56373;SDS011;58212;47.034;7.376;2023-04-29T00:10:59;4.15;;;2.00;;
56373;SDS011;58212;47.034;7.376;2023-04-29T00:13:26;2.42;;;1.63;;
56373;SDS011;58212;47.034;7.376;2023-04-29T00:15:53;3.90;;;3.00;;
56373;SDS011;58212;47.034;7.376;2023-04-29T00:18:20;4.97;;;4.47;;
56373;SDS011;58212;47.034;7.376;2023-04-29T00:20:47;4.28;;;3.97;;
56373;SDS011;58212;47.034;7.376;2023-04-29T00:23:15;4.88;;;4.47;;
56373;SDS011;58212;47.034;7.376;2023-04-29T00:25:42;4.53;;;4.13;;
56373;SDS011;58212;47.034;7.376;2023-04-29T00:28:09;6.03;;;4.40;;
56373;SDS011;58212;47.034;7.376;2023-04-29T00:30:36;5.15;;;3.67;;
56373;SDS011;58212;47.034;7.376;2023-04-29T00:33:03;4.40;;;3.65;;
56373;SDS011;58212;47.034;7.376;2023-04-29T00:35:30;5.55;;;3.72;;
56373;SDS011;58212;47.034;7.376;2023-04-29T00:37:58;3.50;;;3.10;;
56373;SDS011;58212;47.034;7.376;2023-04-29T00:40:27;2.90;;;2.60;;
56373;SDS011;58212;47.034;7.376;2023-04-29T00:42:54;3.10;;;2.30;;
56373;SDS011;58212;47.034;7.376;2023-04-29T00:45:22;5.20;;;2.10;;
56373;SDS011;58212;47.034;7.376;2023-04-29T00:47:49;1.33;;;1.20;;
56373;SDS011;58212;47.034;7.376;2023-04-29T00:50:16;2.17;;;1.17;;
56373;SDS011;58212;47.034;7.376;2023-04-29T00:52:43;2.38;;;1.67;;
56373;SDS011;58212;47.034;7.376;2023-04-29T00:55:10;2.08;;;1.52;;
56373;SDS011;58212;47.034;7.376;2023-04-29T00:57:40;2.05;;;1.70;;
56373;SDS011;58212;47.034;7.376;2023-04-29T01:00:08;3.17;;;1.50;;
56373;SDS011;58212;47.034;7.376;2023-04-29T01:02:36;4.05;;;1.45;;
56373;SDS011;58212;47.034;7.376;2023-04-29T01:05:03;3.10;;;1.45;;
56373;SDS011;58212;47.034;7.376;2023-04-29T01:07:33;1.95;;;1.38;;
56373;SDS011;58212;47.034;7.376;2023-04-29T01:10:05;3.03;;;1.10;;
56373;SDS011;58212;47.034;7.376;2023-04-29T01:12:38;1.85;;;1.20;;
56373;SDS011;58212;47.034;7.376;2023-04-29T01:15:20;2.08;;;1.23;;
56373;SDS011;58212;47.034;7.376;2023-04-29T01:17:51;3.03;;;1.48;;
56373;SDS011;58212;47.034;7.376;2023-04-29T01:20:24;1.52;;;1.20;;
56373;SDS011;58212;47.034;7.376;2023-04-29T01:22:52;2.63;;;1.38;;
56373;SDS011;58212;47.034;7.376;2023-04-29T01:25:20;3.13;;;1.10;;
56373;SDS011;58212;47.034;7.376;2023-04-29T01:28:08;2.22;;;0.93;;
56373;SDS011;58212;47.034;7.376;2023-04-29T01:30:49;1.73;;;1.00;;
56373;SDS011;58212;47.034;7.376;2023-04-29T01:33:27;2.05;;;1.20;;
56373;SDS011;58212;47.034;7.376;2023-04-29T01:36:04;1.98;;;1.15;;
56373;SDS011;58212;47.034;7.376;2023-04-29T01:38:41;2.45;;;1.00;;
56373;SDS011;58212;47.034;7.376;2023-04-29T01:41:20;1.20;;;1.00;;
56373;SDS011;58212;47.034;7.376;2023-04-29T01:43:58;1.33;;;1.10;;
56373;SDS011;58212;47.034;7.376;2023-04-29T01:46:28;2.47;;;1.17;;
56373;SDS011;58212;47.034;7.376;2023-04-29T01:48:57;2.35;;;1.15;;
56373;SDS011;58212;47.034;7.376;2023-04-29T01:51:24;2.92;;;1.20;;
56373;SDS011;58212;47.034;7.376;2023-04-29T01:53:52;3.30;;;1.20;;
56373;SDS011;58212;47.034;7.376;2023-04-29T01:56:21;1.40;;;0.90;;
56373;SDS011;58212;47.034;7.376;2023-04-29T01:58:59;1.70;;;0.95;;
56373;SDS011;58212;47.034;7.376;2023-04-29T02:01:49;1.13;;;1.00;;
56373;SDS011;58212;47.034;7.376;2023-04-29T02:04:18;2.80;;;1.00;;
56373;SDS011;58212;47.034;7.376;2023-04-29T02:06:45;0.90;;;0.90;;
56373;SDS011;58212;47.034;7.376;2023-04-29T02:09:15;2.40;;;0.85;;
56373;SDS011;58212;47.034;7.376;2023-04-29T02:11:50;2.60;;;0.90;;
56373;SDS011;58212;47.034;7.376;2023-04-29T02:14:17;2.72;;;1.30;;
56373;SDS011;58212;47.034;7.376;2023-04-29T02:16:44;1.45;;;1.02;;
56373;SDS011;58212;47.034;7.376;2023-04-29T02:19:12;1.65;;;1.00;;
56373;SDS011;58212;47.034;7.376;2023-04-29T02:21:39;1.35;;;0.90;;
56373;SDS011;58212;47.034;7.376;2023-04-29T02:24:06;2.95;;;0.88;;
56373;SDS011;58212;47.034;7.376;2023-04-29T02:26:33;2.80;;;1.10;;
56373;SDS011;58212;47.034;7.376;2023-04-29T02:29:03;1.42;;;0.95;;
56373;SDS011;58212;47.034;7.376;2023-04-29T02:31:30;3.75;;;0.90;;
56373;SDS011;58212;47.034;7.376;2023-04-29T02:33:57;1.10;;;0.90;;
56373;SDS011;58212;47.034;7.376;2023-04-29T02:36:25;3.22;;;1.13;;
56373;SDS011;58212;47.034;7.376;2023-04-29T02:38:53;1.88;;;1.00;;
56373;SDS011;58212;47.034;7.376;2023-04-29T02:41:20;1.00;;;0.65;;
56373;SDS011;58212;47.034;7.376;2023-04-29T02:43:47;2.85;;;1.17;;
56373;SDS011;58212;47.034;7.376;2023-04-29T02:46:16;1.50;;;1.00;;
56373;SDS011;58212;47.034;7.376;2023-04-29T02:48:44;1.85;;;1.40;;
56373;SDS011;58212;47.034;7.376;2023-04-29T02:51:12;2.92;;;1.23;;
56373;SDS011;58212;47.034;7.376;2023-04-29T02:53:39;1.85;;;1.10;;
56373;SDS011;58212;47.034;7.376;2023-04-29T02:56:06;1.70;;;1.10;;
56373;SDS011;58212;47.034;7.376;2023-04-29T02:58:33;1.95;;;1.23;;
56373;SDS011;58212;47.034;7.376;2023-04-29T03:01:01;3.45;;;1.23;;
56373;SDS011;58212;47.034;7.376;2023-04-29T03:03:30;1.90;;;1.10;;
56373;SDS011;58212;47.034;7.376;2023-04-29T03:05:57;1.25;;;1.00;;
56373;SDS011;58212;47.034;7.376;2023-04-29T03:08:24;2.53;;;1.10;;
56373;SDS011;58212;47.034;7.376;2023-04-29T03:10:52;2.20;;;1.20;;
56373;SDS011;58212;47.034;7.376;2023-04-29T03:13:19;3.13;;;1.13;;
56373;SDS011;58212;47.034;7.376;2023-04-29T03:15:46;3.20;;;1.05;;
56373;SDS011;58212;47.034;7.376;2023-04-29T03:18:13;0.90;;;0.90;;
56373;SDS011;58212;47.034;7.376;2023-04-29T03:20:41;2.55;;;1.20;;
56373;SDS011;58212;47.034;7.376;2023-04-29T03:23:08;1.80;;;1.02;;
56373;SDS011;58212;47.034;7.376;2023-04-29T03:25:35;2.25;;;1.30;;
56373;SDS011;58212;47.034;7.376;2023-04-29T03:28:02;2.13;;;1.38;;
56373;SDS011;58212;47.034;7.376;2023-04-29T03:30:30;1.85;;;1.25;;
56373;SDS011;58212;47.034;7.376;2023-04-29T03:32:58;1.63;;;1.20;;
56373;SDS011;58212;47.034;7.376;2023-04-29T03:35:27;3.03;;;1.00;;
56373;SDS011;58212;47.034;7.376;2023-04-29T03:38:15;1.40;;;0.90;;
56373;SDS011;58212;47.034;7.376;2023-04-29T03:40:43;2.08;;;1.10;;
56373;SDS011;58212;47.034;7.376;2023-04-29T03:43:13;1.40;;;0.77;;
56373;SDS011;58212;47.034;7.376;2023-04-29T03:45:40;1.85;;;0.82;;
56373;SDS011;58212;47.034;7.376;2023-04-29T03:48:09;0.95;;;0.50;;
56373;SDS011;58212;47.034;7.376;2023-04-29T03:50:36;0.50;;;0.50;;
56373;SDS011;58212;47.034;7.376;2023-04-29T03:53:03;0.85;;;0.60;;
56373;SDS011;58212;47.034;7.376;2023-04-29T03:55:32;3.42;;;0.60;;
56373;SDS011;58212;47.034;7.376;2023-04-29T03:57:59;3.45;;;0.60;;
56373;SDS011;58212;47.034;7.376;2023-04-29T04:00:26;1.58;;;0.70;;
56373;SDS011;58212;47.034;7.376;2023-04-29T04:02:56;2.25;;;0.70;;
56373;SDS011;58212;47.034;7.376;2023-04-29T04:05:23;0.93;;;0.57;;
56373;SDS011;58212;47.034;7.376;2023-04-29T04:07:56;1.67;;;0.77;;
56373;SDS011;58212;47.034;7.376;2023-04-29T04:10:42;2.35;;;0.90;;
56373;SDS011;58212;47.034;7.376;2023-04-29T04:13:21;2.00;;;0.70;;
56373;SDS011;58212;47.034;7.376;2023-04-29T04:15:48;0.95;;;0.70;;
56373;SDS011;58212;47.034;7.376;2023-04-29T04:18:16;1.17;;;0.70;;
56373;SDS011;58212;47.034;7.376;2023-04-29T04:20:43;1.02;;;0.80;;
56373;SDS011;58212;47.034;7.376;2023-04-29T04:23:11;2.35;;;0.90;;
56373;SDS011;58212;47.034;7.376;2023-04-29T04:25:44;1.00;;;0.85;;
56373;SDS011;58212;47.034;7.376;2023-04-29T04:28:32;2.28;;;0.70;;
56373;SDS011;58212;47.034;7.376;2023-04-29T04:31:06;1.25;;;0.60;;
56373;SDS011;58212;47.034;7.376;2023-04-29T04:33:34;3.63;;;0.60;;
56373;SDS011;58212;47.034;7.376;2023-04-29T04:36:01;1.48;;;0.80;;
56373;SDS011;58212;47.034;7.376;2023-04-29T04:38:28;1.77;;;0.70;;
56373;SDS011;58212;47.034;7.376;2023-04-29T04:40:59;2.20;;;0.90;;
56373;SDS011;58212;47.034;7.376;2023-04-29T04:43:33;0.75;;;0.70;;
56373;SDS011;58212;47.034;7.376;2023-04-29T04:46:08;1.80;;;0.60;;
56373;SDS011;58212;47.034;7.376;2023-04-29T04:48:38;0.60;;;0.60;;
56373;SDS011;58212;47.034;7.376;2023-04-29T04:51:08;1.63;;;0.60;;
56373;SDS011;58212;47.034;7.376;2023-04-29T04:53:35;1.10;;;0.68;;
56373;SDS011;58212;47.034;7.376;2023-04-29T04:56:17;1.02;;;0.77;;
56373;SDS011;58212;47.034;7.376;2023-04-29T04:58:45;1.35;;;0.50;;
56373;SDS011;58212;47.034;7.376;2023-04-29T05:01:13;2.20;;;0.88;;
56373;SDS011;58212;47.034;7.376;2023-04-29T05:03:40;1.42;;;0.75;;
56373;SDS011;58212;47.034;7.376;2023-04-29T05:06:08;1.70;;;0.73;;
56373;SDS011;58212;47.034;7.376;2023-04-29T05:08:37;1.10;;;0.77;;
56373;SDS011;58212;47.034;7.376;2023-04-29T05:11:06;1.30;;;0.77;;
56373;SDS011;58212;47.034;7.376;2023-04-29T05:13:43;3.10;;;0.90;;
56373;SDS011;58212;47.034;7.376;2023-04-29T05:16:10;2.40;;;0.90;;
56373;SDS011;58212;47.034;7.376;2023-04-29T05:18:42;2.47;;;0.82;;
56373;SDS011;58212;47.034;7.376;2023-04-29T05:21:11;1.75;;;0.80;;
56373;SDS011;58212;47.034;7.376;2023-04-29T05:23:38;2.97;;;0.77;;
56373;SDS011;58212;47.034;7.376;2023-04-29T05:26:05;0.70;;;0.55;;
56373;SDS011;58212;47.034;7.376;2023-04-29T05:28:32;1.30;;;0.77;;
56373;SDS011;58212;47.034;7.376;2023-04-29T05:31:01;1.45;;;0.80;;
56373;SDS011;58212;47.034;7.376;2023-04-29T05:33:29;1.55;;;1.02;;
56373;SDS011;58212;47.034;7.376;2023-04-29T05:35:56;1.23;;;0.55;;
56373;SDS011;58212;47.034;7.376;2023-04-29T05:38:23;2.13;;;0.70;;
56373;SDS011;58212;47.034;7.376;2023-04-29T05:41:04;2.88;;;1.05;;
56373;SDS011;58212;47.034;7.376;2023-04-29T05:43:51;1.10;;;0.50;;
56373;SDS011;58212;47.034;7.376;2023-04-29T05:46:19;0.98;;;0.80;;
56373;SDS011;58212;47.034;7.376;2023-04-29T05:48:48;1.15;;;0.90;;
56373;SDS011;58212;47.034;7.376;2023-04-29T05:51:14;1.00;;;0.80;;
56373;SDS011;58212;47.034;7.376;2023-04-29T05:53:42;1.98;;;0.80;;
56373;SDS011;58212;47.034;7.376;2023-04-29T05:56:09;1.38;;;0.73;;
56373;SDS011;58212;47.034;7.376;2023-04-29T05:58:37;1.67;;;0.52;;
56373;SDS011;58212;47.034;7.376;2023-04-29T06:01:04;2.10;;;0.75;;
56373;SDS011;58212;47.034;7.376;2023-04-29T06:03:32;2.13;;;0.60;;
56373;SDS011;58212;47.034;7.376;2023-04-29T06:06:20;0.95;;;0.63;;
56373;SDS011;58212;47.034;7.376;2023-04-29T06:09:04;1.05;;;0.50;;
56373;SDS011;58212;47.034;7.376;2023-04-29T06:11:32;4.72;;;0.90;;
56373;SDS011;58212;47.034;7.376;2023-04-29T06:14:00;1.58;;;0.60;;
56373;SDS011;58212;47.034;7.376;2023-04-29T06:16:27;1.00;;;0.60;;
56373;SDS011;58212;47.034;7.376;2023-04-29T06:18:56;2.85;;;0.50;;
56373;SDS011;58212;47.034;7.376;2023-04-29T06:21:23;2.38;;;0.50;;
56373;SDS011;58212;47.034;7.376;2023-04-29T06:23:52;0.82;;;0.60;;
56373;SDS011;58212;47.034;7.376;2023-04-29T06:26:20;1.23;;;0.50;;
56373;SDS011;58212;47.034;7.376;2023-04-29T06:28:47;0.52;;;0.40;;
56373;SDS011;58212;47.034;7.376;2023-04-29T06:31:14;0.63;;;0.30;;
56373;SDS011;58212;47.034;7.376;2023-04-29T06:33:41;1.20;;;0.50;;
56373;SDS011;58212;47.034;7.376;2023-04-29T06:36:10;1.27;;;0.40;;
56373;SDS011;58212;47.034;7.376;2023-04-29T06:38:56;0.80;;;0.40;;
56373;SDS011;58212;47.034;7.376;2023-04-29T06:41:46;1.02;;;0.30;;
56373;SDS011;58212;47.034;7.376;2023-04-29T06:44:32;1.88;;;0.65;;
56373;SDS011;58212;47.034;7.376;2023-04-29T06:47:18;3.60;;;0.50;;
56373;SDS011;58212;47.034;7.376;2023-04-29T06:50:02;1.05;;;0.47;;
56373;SDS011;58212;47.034;7.376;2023-04-29T06:52:31;1.30;;;0.55;;
56373;SDS011;58212;47.034;7.376;2023-04-29T06:54:58;1.45;;;0.40;;
56373;SDS011;58212;47.034;7.376;2023-04-29T06:57:25;1.45;;;0.40;;
56373;SDS011;58212;47.034;7.376;2023-04-29T06:59:53;0.60;;;0.50;;
56373;SDS011;58212;47.034;7.376;2023-04-29T07:02:22;1.38;;;0.60;;
56373;SDS011;58212;47.034;7.376;2023-04-29T07:04:49;2.38;;;0.57;;
56373;SDS011;58212;47.034;7.376;2023-04-29T07:07:16;3.67;;;0.77;;
56373;SDS011;58212;47.034;7.376;2023-04-29T07:09:47;0.88;;;0.60;;
56373;SDS011;58212;47.034;7.376;2023-04-29T07:12:16;0.90;;;0.57;;
56373;SDS011;58212;47.034;7.376;2023-04-29T07:14:42;1.05;;;0.60;;
56373;SDS011;58212;47.034;7.376;2023-04-29T07:17:11;1.20;;;0.60;;
56373;SDS011;58212;47.034;7.376;2023-04-29T07:19:38;0.95;;;0.50;;
56373;SDS011;58212;47.034;7.376;2023-04-29T07:22:05;1.88;;;0.63;;
56373;SDS011;58212;47.034;7.376;2023-04-29T07:24:32;1.30;;;0.70;;
56373;SDS011;58212;47.034;7.376;2023-04-29T07:27:01;2.13;;;0.60;;
56373;SDS011;58212;47.034;7.376;2023-04-29T07:29:28;0.60;;;0.40;;
56373;SDS011;58212;47.034;7.376;2023-04-29T07:31:56;1.58;;;0.50;;
56373;SDS011;58212;47.034;7.376;2023-04-29T07:34:23;1.95;;;0.60;;
56373;SDS011;58212;47.034;7.376;2023-04-29T07:36:50;1.02;;;0.55;;
56373;SDS011;58212;47.034;7.376;2023-04-29T07:39:17;1.42;;;0.50;;
56373;SDS011;58212;47.034;7.376;2023-04-29T07:41:47;1.10;;;0.57;;
56373;SDS011;58212;47.034;7.376;2023-04-29T07:44:16;0.70;;;0.60;;
56373;SDS011;58212;47.034;7.376;2023-04-29T07:46:43;1.25;;;0.57;;
56373;SDS011;58212;47.034;7.376;2023-04-29T07:49:12;1.27;;;0.60;;
56373;SDS011;58212;47.034;7.376;2023-04-29T07:51:39;1.50;;;0.50;;
56373;SDS011;58212;47.034;7.376;2023-04-29T07:54:09;0.60;;;0.50;;
56373;SDS011;58212;47.034;7.376;2023-04-29T07:56:36;0.60;;;0.32;;
56373;SDS011;58212;47.034;7.376;2023-04-29T07:59:03;0.75;;;0.50;;
56373;SDS011;58212;47.034;7.376;2023-04-29T08:01:31;1.25;;;0.63;;
56373;SDS011;58212;47.034;7.376;2023-04-29T08:03:58;1.38;;;0.70;;
56373;SDS011;58212;47.034;7.376;2023-04-29T08:06:26;1.75;;;0.60;;
56373;SDS011;58212;47.034;7.376;2023-04-29T08:08:53;2.30;;;0.98;;
56373;SDS011;58212;47.034;7.376;2023-04-29T08:11:21;1.33;;;0.70;;
56373;SDS011;58212;47.034;7.376;2023-04-29T08:13:48;0.93;;;0.70;;
56373;SDS011;58212;47.034;7.376;2023-04-29T08:16:16;1.48;;;0.63;;
56373;SDS011;58212;47.034;7.376;2023-04-29T08:18:44;2.53;;;0.65;;
56373;SDS011;58212;47.034;7.376;2023-04-29T08:21:12;1.05;;;0.60;;
56373;SDS011;58212;47.034;7.376;2023-04-29T08:23:39;1.40;;;0.50;;
56373;SDS011;58212;47.034;7.376;2023-04-29T08:26:09;2.53;;;0.50;;
56373;SDS011;58212;47.034;7.376;2023-04-29T08:28:36;1.30;;;0.60;;
56373;SDS011;58212;47.034;7.376;2023-04-29T08:31:04;1.02;;;0.60;;
56373;SDS011;58212;47.034;7.376;2023-04-29T08:33:31;1.13;;;0.70;;
56373;SDS011;58212;47.034;7.376;2023-04-29T08:36:00;3.22;;;0.88;;
56373;SDS011;58212;47.034;7.376;2023-04-29T08:38:27;1.63;;;0.80;;
56373;SDS011;58212;47.034;7.376;2023-04-29T08:40:55;0.95;;;0.60;;
56373;SDS011;58212;47.034;7.376;2023-04-29T08:43:22;0.73;;;0.73;;
56373;SDS011;58212;47.034;7.376;2023-04-29T08:45:49;1.58;;;1.10;;
56373;SDS011;58212;47.034;7.376;2023-04-29T08:48:17;2.60;;;1.00;;
56373;SDS011;58212;47.034;7.376;2023-04-29T08:50:44;1.65;;;0.90;;
56373;SDS011;58212;47.034;7.376;2023-04-29T08:53:13;1.50;;;1.10;;
56373;SDS011;58212;47.034;7.376;2023-04-29T08:55:41;0.95;;;0.82;;
56373;SDS011;58212;47.034;7.376;2023-04-29T08:58:09;1.58;;;1.05;;
56373;SDS011;58212;47.034;7.376;2023-04-29T09:00:37;1.63;;;1.00;;
56373;SDS011;58212;47.034;7.376;2023-04-29T09:03:09;1.42;;;0.90;;
56373;SDS011;58212;47.034;7.376;2023-04-29T09:05:39;1.10;;;1.00;;
56373;SDS011;58212;47.034;7.376;2023-04-29T09:08:08;3.13;;;1.15;;
56373;SDS011;58212;47.034;7.376;2023-04-29T09:10:38;2.67;;;1.17;;
56373;SDS011;58212;47.034;7.376;2023-04-29T09:13:07;2.05;;;1.00;;
56373;SDS011;58212;47.034;7.376;2023-04-29T09:15:34;1.20;;;1.10;;
56373;SDS011;58212;47.034;7.376;2023-04-29T09:18:04;1.15;;;1.08;;
56373;SDS011;58212;47.034;7.376;2023-04-29T09:20:31;1.10;;;1.00;;
56373;SDS011;58212;47.034;7.376;2023-04-29T09:22:59;1.52;;;0.90;;
56373;SDS011;58212;47.034;7.376;2023-04-29T09:25:27;1.70;;;1.15;;
56373;SDS011;58212;47.034;7.376;2023-04-29T09:27:55;2.55;;;1.13;;
56373;SDS011;58212;47.034;7.376;2023-04-29T09:30:23;2.00;;;1.00;;
56373;SDS011;58212;47.034;7.376;2023-04-29T09:33:04;2.05;;;1.10;;
56373;SDS011;58212;47.034;7.376;2023-04-29T09:35:32;1.35;;;1.00;;
56373;SDS011;58212;47.034;7.376;2023-04-29T09:40:46;0.95;;;0.88;;
56373;SDS011;58212;47.034;7.376;2023-04-29T09:43:15;1.38;;;1.00;;
56373;SDS011;58212;47.034;7.376;2023-04-29T09:45:44;1.95;;;1.15;;
56373;SDS011;58212;47.034;7.376;2023-04-29T09:48:12;2.22;;;1.02;;
56373;SDS011;58212;47.034;7.376;2023-04-29T09:50:42;1.08;;;0.98;;
56373;SDS011;58212;47.034;7.376;2023-04-29T09:53:13;1.13;;;0.80;;
56373;SDS011;58212;47.034;7.376;2023-04-29T09:56:02;1.08;;;1.00;;
56373;SDS011;58212;47.034;7.376;2023-04-29T09:58:31;1.25;;;0.85;;
56373;SDS011;58212;47.034;7.376;2023-04-29T10:01:01;0.70;;;0.70;;
56373;SDS011;58212;47.034;7.376;2023-04-29T10:03:31;1.77;;;1.20;;
56373;SDS011;58212;47.034;7.376;2023-04-29T10:05:59;1.50;;;1.27;;
56373;SDS011;58212;47.034;7.376;2023-04-29T10:08:27;2.15;;;0.95;;
56373;SDS011;58212;47.034;7.376;2023-04-29T10:11:00;1.73;;;0.90;;
56373;SDS011;58212;47.034;7.376;2023-04-29T10:13:30;1.30;;;0.60;;
56373;SDS011;58212;47.034;7.376;2023-04-29T10:16:07;1.15;;;0.90;;
56373;SDS011;58212;47.034;7.376;2023-04-29T10:18:41;1.88;;;0.80;;
56373;SDS011;58212;47.034;7.376;2023-04-29T10:21:14;2.15;;;0.80;;
56373;SDS011;58212;47.034;7.376;2023-04-29T10:23:43;1.55;;;0.80;;
56373;SDS011;58212;47.034;7.376;2023-04-29T10:26:11;1.30;;;0.82;;
56373;SDS011;58212;47.034;7.376;2023-04-29T10:28:42;1.40;;;0.88;;
56373;SDS011;58212;47.034;7.376;2023-04-29T10:31:11;1.58;;;0.82;;
56373;SDS011;58212;47.034;7.376;2023-04-29T10:33:41;1.10;;;1.00;;
56373;SDS011;58212;47.034;7.376;2023-04-29T10:36:10;1.40;;;0.90;;
56373;SDS011;58212;47.034;7.376;2023-04-29T10:38:38;1.27;;;0.70;;
56373;SDS011;58212;47.034;7.376;2023-04-29T10:41:09;0.70;;;0.70;;
56373;SDS011;58212;47.034;7.376;2023-04-29T10:43:46;1.13;;;0.80;;
56373;SDS011;58212;47.034;7.376;2023-04-29T10:46:16;1.00;;;0.80;;
56373;SDS011;58212;47.034;7.376;2023-04-29T10:48:44;0.80;;;0.70;;
56373;SDS011;58212;47.034;7.376;2023-04-29T10:51:11;1.15;;;0.90;;
56373;SDS011;58212;47.034;7.376;2023-04-29T10:56:34;0.93;;;0.80;;
56373;SDS011;58212;47.034;7.376;2023-04-29T10:59:03;0.65;;;0.65;;
56373;SDS011;58212;47.034;7.376;2023-04-29T11:01:40;2.15;;;0.70;;
56373;SDS011;58212;47.034;7.376;2023-04-29T11:04:15;1.85;;;0.85;;
56373;SDS011;58212;47.034;7.376;2023-04-29T11:06:45;1.20;;;0.80;;
56373;SDS011;58212;47.034;7.376;2023-04-29T11:09:14;1.85;;;0.90;;
56373;SDS011;58212;47.034;7.376;2023-04-29T11:11:55;1.40;;;0.90;;
56373;SDS011;58212;47.034;7.376;2023-04-29T11:14:26;1.00;;;0.88;;
56373;SDS011;58212;47.034;7.376;2023-04-29T11:16:56;1.02;;;0.90;;
56373;SDS011;58212;47.034;7.376;2023-04-29T11:19:30;2.70;;;0.90;;
56373;SDS011;58212;47.034;7.376;2023-04-29T11:22:08;1.65;;;0.80;;
56373;SDS011;58212;47.034;7.376;2023-04-29T11:24:49;1.85;;;0.95;;
56373;SDS011;58212;47.034;7.376;2023-04-29T11:27:18;0.70;;;0.70;;
56373;SDS011;58212;47.034;7.376;2023-04-29T11:29:50;2.53;;;0.90;;
56373;SDS011;58212;47.034;7.376;2023-04-29T11:32:20;2.03;;;0.80;;
56373;SDS011;58212;47.034;7.376;2023-04-29T11:34:48;1.65;;;1.00;;
56373;SDS011;58212;47.034;7.376;2023-04-29T11:37:18;1.50;;;0.80;;
56373;SDS011;58212;47.034;7.376;2023-04-29T11:39:47;1.92;;;1.10;;
56373;SDS011;58212;47.034;7.376;2023-04-29T11:42:18;1.55;;;1.00;;
56373;SDS011;58212;47.034;7.376;2023-04-29T11:44:46;2.15;;;1.33;;
56373;SDS011;58212;47.034;7.376;2023-04-29T11:47:17;2.10;;;1.20;;
56373;SDS011;58212;47.034;7.376;2023-04-29T11:49:45;2.50;;;1.85;;
56373;SDS011;58212;47.034;7.376;2023-04-29T11:52:12;1.38;;;1.02;;
56373;SDS011;58212;47.034;7.376;2023-04-29T11:54:42;1.25;;;0.90;;
56373;SDS011;58212;47.034;7.376;2023-04-29T11:57:09;1.38;;;1.00;;
56373;SDS011;58212;47.034;7.376;2023-04-29T11:59:36;1.80;;;1.00;;
56373;SDS011;58212;47.034;7.376;2023-04-29T12:02:05;1.92;;;0.75;;
56373;SDS011;58212;47.034;7.376;2023-04-29T12:04:45;0.95;;;0.82;;
56373;SDS011;58212;47.034;7.376;2023-04-29T12:07:14;0.80;;;0.80;;
56373;SDS011;58212;47.034;7.376;2023-04-29T12:09:42;0.82;;;0.70;;
56373;SDS011;58212;47.034;7.376;2023-04-29T12:12:10;2.17;;;0.95;;
56373;SDS011;58212;47.034;7.376;2023-04-29T12:14:41;1.30;;;0.95;;
56373;SDS011;58212;47.034;7.376;2023-04-29T12:17:10;0.80;;;0.80;;
56373;SDS011;58212;47.034;7.376;2023-04-29T12:19:38;1.13;;;0.88;;
56373;SDS011;58212;47.034;7.376;2023-04-29T12:22:05;1.98;;;0.90;;
56373;SDS011;58212;47.034;7.376;2023-04-29T12:24:33;1.52;;;1.02;;
56373;SDS011;58212;47.034;7.376;2023-04-29T12:27:02;2.88;;;0.85;;
56373;SDS011;58212;47.034;7.376;2023-04-29T12:29:30;1.25;;;0.93;;
56373;SDS011;58212;47.034;7.376;2023-04-29T12:31:58;1.45;;;0.80;;
56373;SDS011;58212;47.034;7.376;2023-04-29T12:34:26;1.00;;;0.90;;
56373;SDS011;58212;47.034;7.376;2023-04-29T12:36:55;1.30;;;0.82;;
56373;SDS011;58212;47.034;7.376;2023-04-29T12:39:23;1.80;;;0.90;;
56373;SDS011;58212;47.034;7.376;2023-04-29T12:41:53;1.25;;;0.90;;
56373;SDS011;58212;47.034;7.376;2023-04-29T12:44:22;1.75;;;0.88;;
56373;SDS011;58212;47.034;7.376;2023-04-29T12:46:49;2.40;;;1.02;;
56373;SDS011;58212;47.034;7.376;2023-04-29T12:49:17;0.98;;;0.80;;
56373;SDS011;58212;47.034;7.376;2023-04-29T12:51:47;3.33;;;0.80;;
56373;SDS011;58212;47.034;7.376;2023-04-29T12:54:14;1.00;;;0.80;;
56373;SDS011;58212;47.034;7.376;2023-04-29T12:56:41;0.77;;;0.68;;
56373;SDS011;58212;47.034;7.376;2023-04-29T12:59:08;1.23;;;0.70;;
56373;SDS011;58212;47.034;7.376;2023-04-29T13:01:36;1.08;;;0.52;;
56373;SDS011;58212;47.034;7.376;2023-04-29T13:04:03;2.03;;;0.80;;
56373;SDS011;58212;47.034;7.376;2023-04-29T13:06:33;1.33;;;0.73;;
56373;SDS011;58212;47.034;7.376;2023-04-29T13:09:05;1.00;;;0.80;;
56373;SDS011;58212;47.034;7.376;2023-04-29T13:11:35;1.00;;;0.80;;
56373;SDS011;58212;47.034;7.376;2023-04-29T13:14:02;0.93;;;0.60;;
56373;SDS011;58212;47.034;7.376;2023-04-29T13:16:31;1.52;;;1.00;;
56373;SDS011;58212;47.034;7.376;2023-04-29T13:18:58;1.02;;;0.93;;
56373;SDS011;58212;47.034;7.376;2023-04-29T13:21:25;1.67;;;1.10;;
56373;SDS011;58212;47.034;7.376;2023-04-29T13:23:54;3.42;;;1.00;;
56373;SDS011;58212;47.034;7.376;2023-04-29T13:26:22;2.10;;;1.10;;
56373;SDS011;58212;47.034;7.376;2023-04-29T13:28:49;1.92;;;1.70;;
56373;SDS011;58212;47.034;7.376;2023-04-29T13:31:16;2.22;;;1.52;;
56373;SDS011;58212;47.034;7.376;2023-04-29T13:33:44;1.00;;;0.95;;
56373;SDS011;58212;47.034;7.376;2023-04-29T13:36:12;1.70;;;1.02;;
56373;SDS011;58212;47.034;7.376;2023-04-29T13:38:38;1.10;;;1.00;;
56373;SDS011;58212;47.034;7.376;2023-04-29T13:41:05;2.67;;;1.10;;
56373;SDS011;58212;47.034;7.376;2023-04-29T13:43:34;1.38;;;1.08;;
56373;SDS011;58212;47.034;7.376;2023-04-29T13:46:01;3.20;;;2.00;;
56373;SDS011;58212;47.034;7.376;2023-04-29T13:48:28;2.45;;;1.80;;
56373;SDS011;58212;47.034;7.376;2023-04-29T13:50:55;1.98;;;1.65;;
56373;SDS011;58212;47.034;7.376;2023-04-29T13:53:22;2.17;;;1.85;;
56373;SDS011;58212;47.034;7.376;2023-04-29T13:55:50;1.80;;;1.55;;
56373;SDS011;58212;47.034;7.376;2023-04-29T13:58:17;1.33;;;1.23;;
56373;SDS011;58212;47.034;7.376;2023-04-29T14:00:46;2.38;;;1.80;;
56373;SDS011;58212;47.034;7.376;2023-04-29T14:03:13;2.95;;;1.90;;
56373;SDS011;58212;47.034;7.376;2023-04-29T14:05:42;4.28;;;1.50;;
56373;SDS011;58212;47.034;7.376;2023-04-29T14:08:09;4.53;;;3.17;;
56373;SDS011;58212;47.034;7.376;2023-04-29T14:10:36;2.45;;;2.20;;
56373;SDS011;58212;47.034;7.376;2023-04-29T14:13:03;2.38;;;1.55;;
56373;SDS011;58212;47.034;7.376;2023-04-29T14:15:31;1.88;;;1.45;;
56373;SDS011;58212;47.034;7.376;2023-04-29T14:17:59;1.50;;;1.40;;
56373;SDS011;58212;47.034;7.376;2023-04-29T14:20:26;3.53;;;1.73;;
56373;SDS011;58212;47.034;7.376;2023-04-29T14:22:53;3.92;;;3.53;;
56373;SDS011;58212;47.034;7.376;2023-04-29T14:25:20;1.75;;;1.63;;
56373;SDS011;58212;47.034;7.376;2023-04-29T14:27:47;2.35;;;1.42;;
56373;SDS011;58212;47.034;7.376;2023-04-29T14:30:14;3.75;;;1.35;;
56373;SDS011;58212;47.034;7.376;2023-04-29T14:32:41;2.00;;;1.45;;
56373;SDS011;58212;47.034;7.376;2023-04-29T14:35:10;1.65;;;1.55;;
56373;SDS011;58212;47.034;7.376;2023-04-29T14:37:37;1.40;;;1.30;;
56373;SDS011;58212;47.034;7.376;2023-04-29T14:40:05;2.70;;;1.27;;
56373;SDS011;58212;47.034;7.376;2023-04-29T14:42:33;3.03;;;1.20;;
56373;SDS011;58212;47.034;7.376;2023-04-29T14:45:00;1.55;;;1.02;;
56373;SDS011;58212;47.034;7.376;2023-04-29T14:47:28;1.30;;;1.20;;
56373;SDS011;58212;47.034;7.376;2023-04-29T14:49:55;1.27;;;1.02;;
56373;SDS011;58212;47.034;7.376;2023-04-29T14:52:24;3.42;;;1.30;;
56373;SDS011;58212;47.034;7.376;2023-04-29T14:54:51;1.02;;;0.55;;
56373;SDS011;58212;47.034;7.376;2023-04-29T14:57:18;0.82;;;0.70;;
56373;SDS011;58212;47.034;7.376;2023-04-29T14:59:45;0.70;;;0.70;;
56373;SDS011;58212;47.034;7.376;2023-04-29T15:02:13;2.35;;;0.90;;
56373;SDS011;58212;47.034;7.376;2023-04-29T15:04:41;2.03;;;1.40;;
56373;SDS011;58212;47.034;7.376;2023-04-29T15:07:10;1.38;;;1.10;;